sensor_id;sensor_type;location;lat;lon;timestamp;temperature;humidity
28823;DHT22;15961;54.678;9.110;2023-05-25T00:02:11;8.10;99.90
28823;DHT22;15961;54.678;9.110;2023-05-25T00:04:40;8.00;99.90
28823;DHT22;15961;54.678;9.110;2023-05-25T00:07:05;8.00;99.90
28823;DHT22;15961;54.678;9.110;2023-05-25T00:09:31;8.00;99.90
28823;DHT22;15961;54.678;9.110;2023-05-25T00:11:56;8.00;99.90
28823;DHT22;15961;54.678;9.110;2023-05-25T00:14:24;8.00;99.90
28823;DHT22;15961;54.678;9.110;2023-05-25T00:16:50;8.10;99.90
28823;DHT22;15961;54.678;9.110;2023-05-25T00:19:16;8.20;99.90
28823;DHT22;15961;54.678;9.110;2023-05-25T00:21:44;8.30;99.90
28823;DHT22;15961;54.678;9.110;2023-05-25T00:24:13;8.40;99.90
28823;DHT22;15961;54.678;9.110;2023-05-25T00:26:38;8.50;99.90
28823;DHT22;15961;54.678;9.110;2023-05-25T00:29:04;8.60;99.90
28823;DHT22;15961;54.678;9.110;2023-05-25T00:31:29;8.70;99.90
28823;DHT22;15961;54.678;9.110;2023-05-25T00:33:57;8.80;99.90
28823;DHT22;15961;54.678;9.110;2023-05-25T00:36:23;8.90;99.90
28823;DHT22;15961;54.678;9.110;2023-05-25T00:38:48;9.10;99.90
28823;DHT22;15961;54.678;9.110;2023-05-25T00:41:16;9.20;99.90
28823;DHT22;15961;54.678;9.110;2023-05-25T00:43:44;9.20;99.90
28823;DHT22;15961;54.678;9.110;2023-05-25T00:46:14;9.20;99.90
28823;DHT22;15961;54.678;9.110;2023-05-25T00:48:42;9.20;99.90
28823;DHT22;15961;54.678;9.110;2023-05-25T00:51:08;9.30;99.90
28823;DHT22;15961;54.678;9.110;2023-05-25T00:53:35;9.20;99.90
28823;DHT22;15961;54.678;9.110;2023-05-25T00:56:09;9.10;99.90
28823;DHT22;15961;54.678;9.110;2023-05-25T00:58:39;9.10;99.90
28823;DHT22;15961;54.678;9.110;2023-05-25T01:01:11;9.10;99.90
28823;DHT22;15961;54.678;9.110;2023-05-25T01:03:41;9.10;99.90
28823;DHT22;15961;54.678;9.110;2023-05-25T01:06:11;9.10;99.90
28823;DHT22;15961;54.678;9.110;2023-05-25T01:08:41;9.10;99.90
28823;DHT22;15961;54.678;9.110;2023-05-25T01:11:10;9.20;99.90
28823;DHT22;15961;54.678;9.110;2023-05-25T01:13:37;9.20;99.90
28823;DHT22;15961;54.678;9.110;2023-05-25T01:16:05;9.10;99.90
28823;DHT22;15961;54.678;9.110;2023-05-25T01:18:31;9.00;99.90
28823;DHT22;15961;54.678;9.110;2023-05-25T01:21:10;8.90;99.90
28823;DHT22;15961;54.678;9.110;2023-05-25T01:24:04;8.90;99.90
28823;DHT22;15961;54.678;9.110;2023-05-25T01:26:36;8.80;99.90
28823;DHT22;15961;54.678;9.110;2023-05-25T01:29:04;8.80;99.90
28823;DHT22;15961;54.678;9.110;2023-05-25T01:31:31;8.80;99.90
28823;DHT22;15961;54.678;9.110;2023-05-25T01:33:58;8.80;99.90
28823;DHT22;15961;54.678;9.110;2023-05-25T01:36:24;8.70;99.90
28823;DHT22;15961;54.678;9.110;2023-05-25T01:38:50;8.70;99.90
28823;DHT22;15961;54.678;9.110;2023-05-25T01:41:15;8.70;99.90
28823;DHT22;15961;54.678;9.110;2023-05-25T01:43:41;8.60;99.90
28823;DHT22;15961;54.678;9.110;2023-05-25T01:48:51;8.40;99.90
28823;DHT22;15961;54.678;9.110;2023-05-25T01:51:25;8.50;99.90
28823;DHT22;15961;54.678;9.110;2023-05-25T01:54:05;8.50;99.90
28823;DHT22;15961;54.678;9.110;2023-05-25T01:56:32;8.50;99.90
28823;DHT22;15961;54.678;9.110;2023-05-25T01:59:00;8.60;99.90
28823;DHT22;15961;54.678;9.110;2023-05-25T02:01:27;8.70;99.90
28823;DHT22;15961;54.678;9.110;2023-05-25T02:03:53;8.70;99.90
28823;DHT22;15961;54.678;9.110;2023-05-25T02:06:19;8.70;99.90
28823;DHT22;15961;54.678;9.110;2023-05-25T02:08:45;8.80;99.90
28823;DHT22;15961;54.678;9.110;2023-05-25T02:11:12;8.80;99.90
28823;DHT22;15961;54.678;9.110;2023-05-25T02:13:38;8.70;99.90
28823;DHT22;15961;54.678;9.110;2023-05-25T02:16:04;8.60;99.90
28823;DHT22;15961;54.678;9.110;2023-05-25T02:18:30;8.50;99.90
28823;DHT22;15961;54.678;9.110;2023-05-25T02:20:56;8.50;99.90
28823;DHT22;15961;54.678;9.110;2023-05-25T02:23:21;8.40;99.90
28823;DHT22;15961;54.678;9.110;2023-05-25T02:25:47;8.30;99.90
28823;DHT22;15961;54.678;9.110;2023-05-25T02:28:13;8.30;99.90
28823;DHT22;15961;54.678;9.110;2023-05-25T02:30:39;8.30;99.90
28823;DHT22;15961;54.678;9.110;2023-05-25T02:33:04;8.20;99.90
28823;DHT22;15961;54.678;9.110;2023-05-25T02:35:30;8.10;99.90
28823;DHT22;15961;54.678;9.110;2023-05-25T02:37:56;8.00;99.90
28823;DHT22;15961;54.678;9.110;2023-05-25T02:40:21;8.00;99.90
28823;DHT22;15961;54.678;9.110;2023-05-25T02:42:47;7.90;99.90
28823;DHT22;15961;54.678;9.110;2023-05-25T02:45:12;7.80;99.90
28823;DHT22;15961;54.678;9.110;2023-05-25T02:47:38;7.80;99.90
28823;DHT22;15961;54.678;9.110;2023-05-25T02:50:04;7.90;99.90
28823;DHT22;15961;54.678;9.110;2023-05-25T02:52:30;7.90;99.90
28823;DHT22;15961;54.678;9.110;2023-05-25T02:54:57;7.90;99.90
28823;DHT22;15961;54.678;9.110;2023-05-25T02:57:22;8.10;99.90
28823;DHT22;15961;54.678;9.110;2023-05-25T02:59:48;8.10;99.90
28823;DHT22;15961;54.678;9.110;2023-05-25T03:02:14;8.10;99.90
28823;DHT22;15961;54.678;9.110;2023-05-25T03:04:45;8.00;99.90
28823;DHT22;15961;54.678;9.110;2023-05-25T03:07:13;8.00;99.90
28823;DHT22;15961;54.678;9.110;2023-05-25T03:09:39;8.10;99.90
28823;DHT22;15961;54.678;9.110;2023-05-25T03:12:05;8.10;99.90
28823;DHT22;15961;54.678;9.110;2023-05-25T03:14:31;8.10;99.90
28823;DHT22;15961;54.678;9.110;2023-05-25T03:16:56;8.20;99.90
28823;DHT22;15961;54.678;9.110;2023-05-25T03:19:22;8.10;99.90
28823;DHT22;15961;54.678;9.110;2023-05-25T03:21:47;8.10;99.90
28823;DHT22;15961;54.678;9.110;2023-05-25T03:24:13;8.10;99.90
28823;DHT22;15961;54.678;9.110;2023-05-25T03:26:38;8.00;99.90
28823;DHT22;15961;54.678;9.110;2023-05-25T03:29:04;8.00;99.90
28823;DHT22;15961;54.678;9.110;2023-05-25T03:31:32;8.00;99.90
28823;DHT22;15961;54.678;9.110;2023-05-25T03:33:58;8.00;99.90
28823;DHT22;15961;54.678;9.110;2023-05-25T03:36:23;8.00;99.90
28823;DHT22;15961;54.678;9.110;2023-05-25T03:38:52;8.10;99.90
28823;DHT22;15961;54.678;9.110;2023-05-25T03:41:17;8.10;99.90
28823;DHT22;15961;54.678;9.110;2023-05-25T03:43:43;8.10;99.90
28823;DHT22;15961;54.678;9.110;2023-05-25T03:46:08;8.10;99.90
28823;DHT22;15961;54.678;9.110;2023-05-25T03:48:36;8.10;99.90
28823;DHT22;15961;54.678;9.110;2023-05-25T03:51:01;8.20;99.90
28823;DHT22;15961;54.678;9.110;2023-05-25T03:53:27;8.20;99.90
28823;DHT22;15961;54.678;9.110;2023-05-25T03:55:52;8.20;99.90
28823;DHT22;15961;54.678;9.110;2023-05-25T03:58:18;8.20;99.90
28823;DHT22;15961;54.678;9.110;2023-05-25T04:00:43;8.20;99.90
28823;DHT22;15961;54.678;9.110;2023-05-25T04:03:09;8.30;99.90
28823;DHT22;15961;54.678;9.110;2023-05-25T04:05:35;8.30;99.90
28823;DHT22;15961;54.678;9.110;2023-05-25T04:08:01;8.30;99.90
28823;DHT22;15961;54.678;9.110;2023-05-25T04:10:27;8.30;99.90
28823;DHT22;15961;54.678;9.110;2023-05-25T04:12:53;8.40;99.90
28823;DHT22;15961;54.678;9.110;2023-05-25T04:15:21;8.50;99.90
28823;DHT22;15961;54.678;9.110;2023-05-25T04:17:46;8.50;99.90
28823;DHT22;15961;54.678;9.110;2023-05-25T04:20:12;8.50;99.90
28823;DHT22;15961;54.678;9.110;2023-05-25T04:22:37;8.60;99.90
28823;DHT22;15961;54.678;9.110;2023-05-25T04:25:07;8.70;99.90
28823;DHT22;15961;54.678;9.110;2023-05-25T04:27:32;8.70;99.90
28823;DHT22;15961;54.678;9.110;2023-05-25T04:29:58;8.80;99.90
28823;DHT22;15961;54.678;9.110;2023-05-25T04:32:25;8.80;99.90
28823;DHT22;15961;54.678;9.110;2023-05-25T04:34:54;8.90;99.90
28823;DHT22;15961;54.678;9.110;2023-05-25T04:37:21;8.90;99.90
28823;DHT22;15961;54.678;9.110;2023-05-25T04:39:47;9.00;99.90
28823;DHT22;15961;54.678;9.110;2023-05-25T04:42:13;9.10;99.90
28823;DHT22;15961;54.678;9.110;2023-05-25T04:44:38;9.10;99.90
28823;DHT22;15961;54.678;9.110;2023-05-25T04:47:05;9.20;99.90
28823;DHT22;15961;54.678;9.110;2023-05-25T04:49:31;9.30;99.90
28823;DHT22;15961;54.678;9.110;2023-05-25T04:51:58;9.30;99.90
28823;DHT22;15961;54.678;9.110;2023-05-25T04:54:23;9.40;99.90
28823;DHT22;15961;54.678;9.110;2023-05-25T04:56:49;9.50;99.90
28823;DHT22;15961;54.678;9.110;2023-05-25T04:59:15;9.60;99.90
28823;DHT22;15961;54.678;9.110;2023-05-25T05:01:41;9.70;99.90
28823;DHT22;15961;54.678;9.110;2023-05-25T05:04:09;9.70;99.90
28823;DHT22;15961;54.678;9.110;2023-05-25T05:06:35;9.80;99.90
28823;DHT22;15961;54.678;9.110;2023-05-25T05:09:01;9.90;99.90
28823;DHT22;15961;54.678;9.110;2023-05-25T05:11:27;9.90;99.90
28823;DHT22;15961;54.678;9.110;2023-05-25T05:13:56;10.00;99.90
28823;DHT22;15961;54.678;9.110;2023-05-25T05:16:22;10.10;99.90
28823;DHT22;15961;54.678;9.110;2023-05-25T05:18:47;10.20;99.90
28823;DHT22;15961;54.678;9.110;2023-05-25T05:21:13;10.30;99.90
28823;DHT22;15961;54.678;9.110;2023-05-25T05:23:41;10.40;99.90
28823;DHT22;15961;54.678;9.110;2023-05-25T05:26:07;10.50;99.90
28823;DHT22;15961;54.678;9.110;2023-05-25T05:28:36;10.50;99.90
28823;DHT22;15961;54.678;9.110;2023-05-25T05:31:01;10.60;99.90
28823;DHT22;15961;54.678;9.110;2023-05-25T05:33:27;10.60;99.90
28823;DHT22;15961;54.678;9.110;2023-05-25T05:35:52;10.70;99.90
28823;DHT22;15961;54.678;9.110;2023-05-25T05:38:19;10.80;99.90
28823;DHT22;15961;54.678;9.110;2023-05-25T05:40:44;10.90;99.90
28823;DHT22;15961;54.678;9.110;2023-05-25T05:43:11;11.00;99.90
28823;DHT22;15961;54.678;9.110;2023-05-25T05:45:37;11.10;99.90
28823;DHT22;15961;54.678;9.110;2023-05-25T05:48:03;11.10;99.90
28823;DHT22;15961;54.678;9.110;2023-05-25T05:50:29;11.20;99.90
28823;DHT22;15961;54.678;9.110;2023-05-25T05:52:55;11.30;99.90
28823;DHT22;15961;54.678;9.110;2023-05-25T05:55:21;11.40;99.90
28823;DHT22;15961;54.678;9.110;2023-05-25T05:57:46;11.40;99.90
28823;DHT22;15961;54.678;9.110;2023-05-25T06:00:13;11.60;99.90
28823;DHT22;15961;54.678;9.110;2023-05-25T06:02:38;11.60;99.90
28823;DHT22;15961;54.678;9.110;2023-05-25T06:05:04;11.70;99.90
28823;DHT22;15961;54.678;9.110;2023-05-25T06:07:31;11.60;99.90
28823;DHT22;15961;54.678;9.110;2023-05-25T06:09:59;11.70;99.90
28823;DHT22;15961;54.678;9.110;2023-05-25T06:12:25;11.80;99.90
28823;DHT22;15961;54.678;9.110;2023-05-25T06:14:50;11.70;99.90
28823;DHT22;15961;54.678;9.110;2023-05-25T06:17:16;11.90;99.90
28823;DHT22;15961;54.678;9.110;2023-05-25T06:19:41;11.90;99.90
28823;DHT22;15961;54.678;9.110;2023-05-25T06:22:07;12.10;99.90
28823;DHT22;15961;54.678;9.110;2023-05-25T06:24:33;12.30;99.90
28823;DHT22;15961;54.678;9.110;2023-05-25T06:26:58;12.40;99.90
28823;DHT22;15961;54.678;9.110;2023-05-25T06:29:24;12.50;99.90
28823;DHT22;15961;54.678;9.110;2023-05-25T06:31:49;12.70;99.90
28823;DHT22;15961;54.678;9.110;2023-05-25T06:34:15;12.80;99.90
28823;DHT22;15961;54.678;9.110;2023-05-25T06:36:40;12.90;99.90
28823;DHT22;15961;54.678;9.110;2023-05-25T06:39:06;13.10;99.90
28823;DHT22;15961;54.678;9.110;2023-05-25T06:41:31;13.20;99.90
28823;DHT22;15961;54.678;9.110;2023-05-25T06:43:57;13.30;99.90
28823;DHT22;15961;54.678;9.110;2023-05-25T06:46:23;13.40;99.90
28823;DHT22;15961;54.678;9.110;2023-05-25T06:48:48;13.00;99.90
28823;DHT22;15961;54.678;9.110;2023-05-25T06:51:14;12.90;99.90
28823;DHT22;15961;54.678;9.110;2023-05-25T06:53:39;12.90;99.90
28823;DHT22;15961;54.678;9.110;2023-05-25T06:56:05;12.90;99.90
28823;DHT22;15961;54.678;9.110;2023-05-25T06:58:31;13.10;99.90
28823;DHT22;15961;54.678;9.110;2023-05-25T07:00:56;13.30;99.90
28823;DHT22;15961;54.678;9.110;2023-05-25T07:03:22;13.40;99.90
28823;DHT22;15961;54.678;9.110;2023-05-25T07:05:47;13.40;99.90
28823;DHT22;15961;54.678;9.110;2023-05-25T07:08:13;13.40;99.90
28823;DHT22;15961;54.678;9.110;2023-05-25T07:10:39;13.30;99.90
28823;DHT22;15961;54.678;9.110;2023-05-25T07:13:04;13.20;99.90
28823;DHT22;15961;54.678;9.110;2023-05-25T07:15:30;13.40;99.90
28823;DHT22;15961;54.678;9.110;2023-05-25T07:17:55;13.50;99.90
28823;DHT22;15961;54.678;9.110;2023-05-25T07:20:22;13.60;99.90
28823;DHT22;15961;54.678;9.110;2023-05-25T07:22:47;13.70;99.90
28823;DHT22;15961;54.678;9.110;2023-05-25T07:25:13;13.70;99.90
28823;DHT22;15961;54.678;9.110;2023-05-25T07:27:39;13.90;99.90
28823;DHT22;15961;54.678;9.110;2023-05-25T07:30:07;14.10;99.90
28823;DHT22;15961;54.678;9.110;2023-05-25T07:32:33;14.10;99.90
28823;DHT22;15961;54.678;9.110;2023-05-25T07:34:58;14.30;99.90
28823;DHT22;15961;54.678;9.110;2023-05-25T07:37:24;14.30;99.90
28823;DHT22;15961;54.678;9.110;2023-05-25T07:39:49;14.30;99.90
28823;DHT22;15961;54.678;9.110;2023-05-25T07:42:15;14.30;99.90
28823;DHT22;15961;54.678;9.110;2023-05-25T07:44:45;14.40;99.90
28823;DHT22;15961;54.678;9.110;2023-05-25T07:47:11;14.30;99.90
28823;DHT22;15961;54.678;9.110;2023-05-25T07:49:36;14.40;99.90
28823;DHT22;15961;54.678;9.110;2023-05-25T07:52:02;14.50;99.90
28823;DHT22;15961;54.678;9.110;2023-05-25T07:54:30;14.60;99.90
28823;DHT22;15961;54.678;9.110;2023-05-25T07:56:55;14.70;99.90
28823;DHT22;15961;54.678;9.110;2023-05-25T07:59:21;14.70;99.90
28823;DHT22;15961;54.678;9.110;2023-05-25T08:01:46;14.70;99.90
28823;DHT22;15961;54.678;9.110;2023-05-25T08:04:12;14.80;99.90
28823;DHT22;15961;54.678;9.110;2023-05-25T08:06:38;15.00;99.90
28823;DHT22;15961;54.678;9.110;2023-05-25T08:09:04;15.10;99.90
28823;DHT22;15961;54.678;9.110;2023-05-25T08:11:30;15.00;99.90
28823;DHT22;15961;54.678;9.110;2023-05-25T08:13:56;15.10;99.90
28823;DHT22;15961;54.678;9.110;2023-05-25T08:16:21;15.30;99.90
28823;DHT22;15961;54.678;9.110;2023-05-25T08:18:47;15.40;99.90
28823;DHT22;15961;54.678;9.110;2023-05-25T08:21:13;15.40;99.90
28823;DHT22;15961;54.678;9.110;2023-05-25T08:23:41;15.60;99.90
28823;DHT22;15961;54.678;9.110;2023-05-25T08:26:08;15.70;99.90
28823;DHT22;15961;54.678;9.110;2023-05-25T08:28:34;15.90;99.90
28823;DHT22;15961;54.678;9.110;2023-05-25T08:31:00;16.00;99.90
28823;DHT22;15961;54.678;9.110;2023-05-25T08:33:26;16.00;99.90
28823;DHT22;15961;54.678;9.110;2023-05-25T08:35:52;15.90;99.90
28823;DHT22;15961;54.678;9.110;2023-05-25T08:38:17;16.10;99.90
28823;DHT22;15961;54.678;9.110;2023-05-25T08:40:44;16.20;99.90
28823;DHT22;15961;54.678;9.110;2023-05-25T08:43:10;16.40;99.90
28823;DHT22;15961;54.678;9.110;2023-05-25T08:45:35;16.40;99.90
28823;DHT22;15961;54.678;9.110;2023-05-25T08:48:03;16.30;99.90
28823;DHT22;15961;54.678;9.110;2023-05-25T08:50:32;16.20;99.90
28823;DHT22;15961;54.678;9.110;2023-05-25T08:53:01;16.20;99.90
28823;DHT22;15961;54.678;9.110;2023-05-25T08:55:28;16.30;99.90
28823;DHT22;15961;54.678;9.110;2023-05-25T08:58:05;16.50;99.90
28823;DHT22;15961;54.678;9.110;2023-05-25T09:00:35;16.70;99.90
28823;DHT22;15961;54.678;9.110;2023-05-25T09:03:09;16.90;99.90
28823;DHT22;15961;54.678;9.110;2023-05-25T09:05:35;17.10;99.90
28823;DHT22;15961;54.678;9.110;2023-05-25T09:08:04;17.20;99.90
28823;DHT22;15961;54.678;9.110;2023-05-25T09:10:32;17.30;99.90
28823;DHT22;15961;54.678;9.110;2023-05-25T09:12:59;17.00;99.90
28823;DHT22;15961;54.678;9.110;2023-05-25T09:15:24;16.90;99.90
28823;DHT22;15961;54.678;9.110;2023-05-25T09:17:50;16.80;99.90
28823;DHT22;15961;54.678;9.110;2023-05-25T09:20:17;16.90;99.90
28823;DHT22;15961;54.678;9.110;2023-05-25T09:22:43;16.80;99.90
28823;DHT22;15961;54.678;9.110;2023-05-25T09:25:10;16.80;99.90
28823;DHT22;15961;54.678;9.110;2023-05-25T09:27:36;17.00;99.90
28823;DHT22;15961;54.678;9.110;2023-05-25T09:30:03;17.20;99.90
28823;DHT22;15961;54.678;9.110;2023-05-25T09:32:29;17.30;99.90
28823;DHT22;15961;54.678;9.110;2023-05-25T09:34:56;17.40;99.90
28823;DHT22;15961;54.678;9.110;2023-05-25T09:37:31;17.50;99.90
28823;DHT22;15961;54.678;9.110;2023-05-25T09:39:56;17.60;99.90
28823;DHT22;15961;54.678;9.110;2023-05-25T09:42:22;17.80;99.90
28823;DHT22;15961;54.678;9.110;2023-05-25T09:44:47;18.00;99.90
28823;DHT22;15961;54.678;9.110;2023-05-25T09:47:13;18.20;99.90
28823;DHT22;15961;54.678;9.110;2023-05-25T09:49:40;18.40;99.90
28823;DHT22;15961;54.678;9.110;2023-05-25T09:52:08;18.20;99.90
28823;DHT22;15961;54.678;9.110;2023-05-25T09:54:35;18.30;99.90
28823;DHT22;15961;54.678;9.110;2023-05-25T09:57:02;18.40;99.90
28823;DHT22;15961;54.678;9.110;2023-05-25T09:59:29;18.30;99.90
28823;DHT22;15961;54.678;9.110;2023-05-25T10:01:55;18.10;99.90
28823;DHT22;15961;54.678;9.110;2023-05-25T10:04:21;18.10;99.90
28823;DHT22;15961;54.678;9.110;2023-05-25T10:06:47;18.10;99.90
28823;DHT22;15961;54.678;9.110;2023-05-25T10:09:15;18.00;99.90
28823;DHT22;15961;54.678;9.110;2023-05-25T10:11:42;18.00;99.90
28823;DHT22;15961;54.678;9.110;2023-05-25T10:14:09;18.10;99.90
28823;DHT22;15961;54.678;9.110;2023-05-25T10:16:38;18.40;99.90
28823;DHT22;15961;54.678;9.110;2023-05-25T10:19:11;18.60;99.90
28823;DHT22;15961;54.678;9.110;2023-05-25T10:21:44;18.70;99.90
28823;DHT22;15961;54.678;9.110;2023-05-25T10:26:53;18.30;99.90
28823;DHT22;15961;54.678;9.110;2023-05-25T10:29:21;18.30;99.90
28823;DHT22;15961;54.678;9.110;2023-05-25T10:31:49;18.70;99.90
28823;DHT22;15961;54.678;9.110;2023-05-25T10:34:15;18.70;99.90
28823;DHT22;15961;54.678;9.110;2023-05-25T10:36:41;18.90;99.90
28823;DHT22;15961;54.678;9.110;2023-05-25T10:39:08;19.00;99.90
28823;DHT22;15961;54.678;9.110;2023-05-25T10:41:33;19.20;99.90
28823;DHT22;15961;54.678;9.110;2023-05-25T10:44:00;19.00;99.90
28823;DHT22;15961;54.678;9.110;2023-05-25T10:46:26;18.80;99.90
28823;DHT22;15961;54.678;9.110;2023-05-25T10:48:53;19.10;99.90
28823;DHT22;15961;54.678;9.110;2023-05-25T10:51:39;19.40;99.90
28823;DHT22;15961;54.678;9.110;2023-05-25T10:54:05;19.50;99.90
28823;DHT22;15961;54.678;9.110;2023-05-25T10:56:31;19.50;99.90
28823;DHT22;15961;54.678;9.110;2023-05-25T10:58:56;19.90;99.90
28823;DHT22;15961;54.678;9.110;2023-05-25T11:01:22;20.10;99.90
28823;DHT22;15961;54.678;9.110;2023-05-25T11:09:02;19.80;99.90
28823;DHT22;15961;54.678;9.110;2023-05-25T11:14:28;20.10;99.90
28823;DHT22;15961;54.678;9.110;2023-05-25T11:17:09;19.90;99.90
28823;DHT22;15961;54.678;9.110;2023-05-25T11:19:54;19.70;99.90
28823;DHT22;15961;54.678;9.110;2023-05-25T11:22:33;19.90;99.90
28823;DHT22;15961;54.678;9.110;2023-05-25T11:27:50;20.50;99.90
28823;DHT22;15961;54.678;9.110;2023-05-25T11:30:18;20.20;99.90
28823;DHT22;15961;54.678;9.110;2023-05-25T11:32:50;20.20;99.90
28823;DHT22;15961;54.678;9.110;2023-05-25T11:35:15;20.40;99.90
28823;DHT22;15961;54.678;9.110;2023-05-25T11:37:41;20.70;99.90
28823;DHT22;15961;54.678;9.110;2023-05-25T11:40:14;20.70;99.90
28823;DHT22;15961;54.678;9.110;2023-05-25T11:42:40;20.20;99.90
28823;DHT22;15961;54.678;9.110;2023-05-25T11:45:10;20.40;99.90
28823;DHT22;15961;54.678;9.110;2023-05-25T11:47:35;20.60;99.90
28823;DHT22;15961;54.678;9.110;2023-05-25T11:50:01;21.00;99.90
28823;DHT22;15961;54.678;9.110;2023-05-25T11:52:27;21.10;99.90
28823;DHT22;15961;54.678;9.110;2023-05-25T11:54:52;21.30;99.90
28823;DHT22;15961;54.678;9.110;2023-05-25T11:57:21;21.70;99.90
28823;DHT22;15961;54.678;9.110;2023-05-25T11:59:53;21.90;99.90
28823;DHT22;15961;54.678;9.110;2023-05-25T12:02:20;22.30;99.90
28823;DHT22;15961;54.678;9.110;2023-05-25T12:04:57;21.90;99.90
28823;DHT22;15961;54.678;9.110;2023-05-25T12:07:24;21.40;99.90
28823;DHT22;15961;54.678;9.110;2023-05-25T12:09:51;21.80;99.90
28823;DHT22;15961;54.678;9.110;2023-05-25T12:12:16;21.60;99.90
28823;DHT22;15961;54.678;9.110;2023-05-25T12:14:49;22.00;99.90
28823;DHT22;15961;54.678;9.110;2023-05-25T12:17:16;21.70;99.90
28823;DHT22;15961;54.678;9.110;2023-05-25T12:19:42;21.90;99.90
28823;DHT22;15961;54.678;9.110;2023-05-25T12:22:09;21.70;99.90
28823;DHT22;15961;54.678;9.110;2023-05-25T12:24:35;21.50;99.90
28823;DHT22;15961;54.678;9.110;2023-05-25T12:27:01;21.40;99.90
28823;DHT22;15961;54.678;9.110;2023-05-25T12:29:29;21.30;99.90
28823;DHT22;15961;54.678;9.110;2023-05-25T12:32:01;21.90;99.90
28823;DHT22;15961;54.678;9.110;2023-05-25T12:34:28;22.20;99.90
28823;DHT22;15961;54.678;9.110;2023-05-25T12:36:55;22.40;99.90
28823;DHT22;15961;54.678;9.110;2023-05-25T12:42:00;23.20;99.90
28823;DHT22;15961;54.678;9.110;2023-05-25T12:44:32;22.40;99.90
28823;DHT22;15961;54.678;9.110;2023-05-25T12:47:19;22.00;99.90
28823;DHT22;15961;54.678;9.110;2023-05-25T12:50:12;22.60;99.90
28823;DHT22;15961;54.678;9.110;2023-05-25T12:52:43;22.90;99.90
28823;DHT22;15961;54.678;9.110;2023-05-25T12:55:25;23.00;99.90
28823;DHT22;15961;54.678;9.110;2023-05-25T12:57:55;23.20;99.90
28823;DHT22;15961;54.678;9.110;2023-05-25T13:00:24;23.00;99.90
28823;DHT22;15961;54.678;9.110;2023-05-25T13:02:51;22.90;99.90
28823;DHT22;15961;54.678;9.110;2023-05-25T13:05:21;22.40;99.90
28823;DHT22;15961;54.678;9.110;2023-05-25T13:07:48;22.50;99.90
28823;DHT22;15961;54.678;9.110;2023-05-25T13:10:14;23.00;99.90
28823;DHT22;15961;54.678;9.110;2023-05-25T13:12:47;23.00;99.90
28823;DHT22;15961;54.678;9.110;2023-05-25T13:15:16;23.20;99.90
28823;DHT22;15961;54.678;9.110;2023-05-25T13:17:44;22.90;99.90
28823;DHT22;15961;54.678;9.110;2023-05-25T13:20:23;23.30;99.90
28823;DHT22;15961;54.678;9.110;2023-05-25T13:22:50;23.20;99.90
28823;DHT22;15961;54.678;9.110;2023-05-25T13:25:16;23.00;99.90
28823;DHT22;15961;54.678;9.110;2023-05-25T13:27:50;23.20;99.90
28823;DHT22;15961;54.678;9.110;2023-05-25T13:30:18;23.50;99.90
28823;DHT22;15961;54.678;9.110;2023-05-25T13:32:47;23.50;99.90
28823;DHT22;15961;54.678;9.110;2023-05-25T13:35:13;23.20;99.90
28823;DHT22;15961;54.678;9.110;2023-05-25T13:37:44;23.10;99.90
28823;DHT22;15961;54.678;9.110;2023-05-25T13:40:10;22.90;99.90
28823;DHT22;15961;54.678;9.110;2023-05-25T13:42:36;23.10;99.90
28823;DHT22;15961;54.678;9.110;2023-05-25T13:45:01;23.20;99.90
28823;DHT22;15961;54.678;9.110;2023-05-25T13:47:27;23.70;99.90
28823;DHT22;15961;54.678;9.110;2023-05-25T13:49:53;23.80;99.90
28823;DHT22;15961;54.678;9.110;2023-05-25T13:52:18;23.50;99.90
28823;DHT22;15961;54.678;9.110;2023-05-25T13:54:44;23.80;99.90
28823;DHT22;15961;54.678;9.110;2023-05-25T13:57:09;23.90;99.90
28823;DHT22;15961;54.678;9.110;2023-05-25T13:59:36;23.70;99.90
28823;DHT22;15961;54.678;9.110;2023-05-25T14:02:02;23.30;99.90
28823;DHT22;15961;54.678;9.110;2023-05-25T14:04:28;22.90;99.90
28823;DHT22;15961;54.678;9.110;2023-05-25T14:06:53;23.40;99.90
28823;DHT22;15961;54.678;9.110;2023-05-25T14:09:20;23.90;99.90
28823;DHT22;15961;54.678;9.110;2023-05-25T14:11:46;24.10;99.90
28823;DHT22;15961;54.678;9.110;2023-05-25T14:14:11;23.60;99.90
28823;DHT22;15961;54.678;9.110;2023-05-25T14:16:37;23.20;99.90
28823;DHT22;15961;54.678;9.110;2023-05-25T14:19:03;23.20;99.90
28823;DHT22;15961;54.678;9.110;2023-05-25T14:21:29;23.40;99.90
28823;DHT22;15961;54.678;9.110;2023-05-25T14:23:55;23.10;99.90
28823;DHT22;15961;54.678;9.110;2023-05-25T14:26:21;22.80;99.90
28823;DHT22;15961;54.678;9.110;2023-05-25T14:28:47;22.80;99.90
28823;DHT22;15961;54.678;9.110;2023-05-25T14:31:12;22.50;99.90
28823;DHT22;15961;54.678;9.110;2023-05-25T14:33:38;22.60;99.90
28823;DHT22;15961;54.678;9.110;2023-05-25T14:36:04;22.90;99.90
28823;DHT22;15961;54.678;9.110;2023-05-25T14:38:30;23.10;99.90
28823;DHT22;15961;54.678;9.110;2023-05-25T14:40:57;22.90;99.90
28823;DHT22;15961;54.678;9.110;2023-05-25T14:43:23;22.50;99.90
28823;DHT22;15961;54.678;9.110;2023-05-25T14:45:48;22.20;99.90
28823;DHT22;15961;54.678;9.110;2023-05-25T14:48:14;22.20;99.90
28823;DHT22;15961;54.678;9.110;2023-05-25T14:50:40;22.10;99.90
28823;DHT22;15961;54.678;9.110;2023-05-25T14:53:06;22.30;99.90
28823;DHT22;15961;54.678;9.110;2023-05-25T14:55:32;22.40;99.90
28823;DHT22;15961;54.678;9.110;2023-05-25T14:57:57;22.40;99.90
28823;DHT22;15961;54.678;9.110;2023-05-25T15:00:23;22.60;99.90
28823;DHT22;15961;54.678;9.110;2023-05-25T15:02:48;22.70;99.90
28823;DHT22;15961;54.678;9.110;2023-05-25T15:05:14;22.40;99.90
28823;DHT22;15961;54.678;9.110;2023-05-25T15:07:39;22.40;99.90
28823;DHT22;15961;54.678;9.110;2023-05-25T15:10:06;22.60;99.90
28823;DHT22;15961;54.678;9.110;2023-05-25T15:12:31;22.30;99.90
28823;DHT22;15961;54.678;9.110;2023-05-25T15:14:57;22.30;99.90
28823;DHT22;15961;54.678;9.110;2023-05-25T15:17:22;22.40;99.90
28823;DHT22;15961;54.678;9.110;2023-05-25T15:19:48;22.40;99.90
28823;DHT22;15961;54.678;9.110;2023-05-25T15:22:14;22.10;99.90
28823;DHT22;15961;54.678;9.110;2023-05-25T15:24:39;21.70;99.90
28823;DHT22;15961;54.678;9.110;2023-05-25T15:27:05;21.80;99.90
28823;DHT22;15961;54.678;9.110;2023-05-25T15:29:30;21.90;99.90
28823;DHT22;15961;54.678;9.110;2023-05-25T15:31:56;21.70;99.90
28823;DHT22;15961;54.678;9.110;2023-05-25T15:34:21;21.80;99.90
28823;DHT22;15961;54.678;9.110;2023-05-25T15:36:47;21.50;99.90
28823;DHT22;15961;54.678;9.110;2023-05-25T15:39:13;21.30;99.90
28823;DHT22;15961;54.678;9.110;2023-05-25T15:41:39;21.30;99.90
28823;DHT22;15961;54.678;9.110;2023-05-25T15:44:05;21.40;99.90
28823;DHT22;15961;54.678;9.110;2023-05-25T15:46:32;21.50;99.90
28823;DHT22;15961;54.678;9.110;2023-05-25T15:48:58;21.50;99.90
28823;DHT22;15961;54.678;9.110;2023-05-25T15:51:23;21.40;99.90
28823;DHT22;15961;54.678;9.110;2023-05-25T15:53:49;20.80;99.90